Time;durP1;ratioP1;P1;durP2;ratioP2;P2;SDS_P1;SDS_P2;PMS_P1;PMS_P2;Temp;Humidity;BMP_temperature;BMP_pressure;BME280_temperature;BME280_humidity;BME280_pressure;Samples;Min_cycle;Max_cycle;Signal;HPM_P1;HPM_P2
2022/12/30 00:01:48;;;;;;;;;;;7.00;99.90;;;;;;5056580;28;20051;-80
2022/12/30 00:04:14;;;;;;;;;;;7.00;99.90;;;;;;5057345;28;19932;-80
2022/12/30 00:06:41;;;;;;;;;;;7.00;99.90;;;;;;5058260;28;20015;-80
2022/12/30 00:09:08;;;;;;;;;;;6.90;99.90;;;;;;5058374;28;19933;-79
2022/12/30 00:11:35;;;;;;;;;;;6.90;99.90;;;;;;5058779;28;20002;-80
2022/12/30 00:33:40;;;;;;;;;;;6.70;99.90;;;;;;4984537;28;19936;-81
2022/12/30 00:36:07;;;;;;;;;;;6.70;99.90;;;;;;5038280;28;19932;-79
2022/12/30 00:38:35;;;;;;;;;;;6.70;99.90;;;;;;5041697;28;20313;-79
2022/12/30 00:43:46;;;;;;;;;;;6.70;99.90;;;;;;5039327;28;20024;-81
2022/12/30 00:46:13;;;;;;;;;;;6.70;99.90;;;;;;5059008;28;19925;-80
2022/12/30 00:56:54;;;;;;;;;;;6.60;99.90;;;;;;5040437;28;19947;-79
2022/12/30 00:59:21;;;;;;;;;;;6.70;99.90;;;;;;5043357;28;19932;-79
2022/12/30 01:01:48;;;;;;;;;;;6.60;99.90;;;;;;5043710;28;19995;-78
2022/12/30 01:04:16;;;;;;;;;;;6.60;99.90;;;;;;5042134;28;20154;-80
2022/12/30 01:06:43;;;;;;;;;;;6.50;99.90;;;;;;5041075;28;19924;-80
2022/12/30 01:09:10;;;;;;;;;;;6.50;99.90;;;;;;5058762;28;19978;-79
2022/12/30 01:11:37;;;;;;;;;;;6.50;99.90;;;;;;5035528;28;20021;-80
2022/12/30 01:14:03;;;;;;;;;;;6.50;99.90;;;;;;5059843;28;20007;-79
2022/12/30 01:16:31;;;;;;;;;;;6.50;99.90;;;;;;5061278;28;19928;-79
2022/12/30 01:18:57;;;;;;;;;;;6.50;99.90;;;;;;5043018;28;19928;-78
2022/12/30 01:21:26;;;;;;;;;;;6.50;99.90;;;;;;5043216;28;20411;-78
2022/12/30 01:23:52;;;;;;;;;;;6.50;99.90;;;;;;5059523;28;19928;-78
2022/12/30 01:26:19;;;;;;;;;;;6.50;99.90;;;;;;5041584;28;20451;-78
2022/12/30 01:28:46;;;;;;;;;;;6.40;99.90;;;;;;5062347;28;19932;-79
2022/12/30 01:31:13;;;;;;;;;;;6.40;99.90;;;;;;5064950;28;19959;-80
2022/12/30 01:33:40;;;;;;;;;;;6.40;99.90;;;;;;5063657;28;19925;-79
2022/12/30 01:36:07;;;;;;;;;;;6.40;99.90;;;;;;5045315;28;19962;-81
2022/12/30 01:38:35;;;;;;;;;;;6.40;99.90;;;;;;5047301;28;19928;-79
2022/12/30 01:41:02;;;;;;;;;;;6.40;99.90;;;;;;5047394;28;20055;-79
2022/12/30 01:43:47;;;;;;;;;;;6.40;99.90;;;;;;5044546;28;19929;-80
2022/12/30 01:46:16;;;;;;;;;;;6.30;99.90;;;;;;5062152;28;19978;-78
2022/12/30 01:48:43;;;;;;;;;;;6.30;99.90;;;;;;5060481;28;19963;-79
2022/12/30 01:51:11;;;;;;;;;;;6.20;99.90;;;;;;5043448;28;21259;-80
2022/12/30 01:53:41;;;;;;;;;;;6.30;99.90;;;;;;5066075;28;20379;-79
2022/12/30 01:56:11;;;;;;;;;;;6.20;99.90;;;;;;5063842;28;19929;-78
2022/12/30 01:58:39;;;;;;;;;;;6.20;99.90;;;;;;5063437;28;20298;-78
2022/12/30 02:01:11;;;;;;;;;;;6.20;99.90;;;;;;5059040;28;20425;-78
2022/12/30 02:03:44;;;;;;;;;;;6.20;99.90;;;;;;5062433;28;19932;-78
2022/12/30 02:06:11;;;;;;;;;;;6.20;99.90;;;;;;5064681;28;19958;-79
2022/12/30 02:08:37;;;;;;;;;;;6.10;99.90;;;;;;5041609;28;20015;-80
2022/12/30 02:11:06;;;;;;;;;;;6.10;99.90;;;;;;5063439;28;20397;-80
2022/12/30 02:13:33;;;;;;;;;;;6.10;99.90;;;;;;5046477;28;19928;-80
2022/12/30 02:16:07;;;;;;;;;;;6.10;99.90;;;;;;5060047;28;19928;-79
2022/12/30 02:18:41;;;;;;;;;;;6.10;99.90;;;;;;5062731;28;19982;-80
2022/12/30 02:21:15;;;;;;;;;;;6.10;99.90;;;;;;5059807;28;19933;-79
2022/12/30 02:24:00;;;;;;;;;;;6.10;99.90;;;;;;5040065;28;20014;-79
2022/12/30 02:26:39;;;;;;;;;;;6.10;99.90;;;;;;5062841;28;20039;-79
2022/12/30 02:29:21;;;;;;;;;;;6.10;99.90;;;;;;5062560;28;19942;-79
2022/12/30 02:31:53;;;;;;;;;;;6.00;99.90;;;;;;5058290;28;19935;-79
2022/12/30 02:34:24;;;;;;;;;;;6.00;99.90;;;;;;5061611;28;19947;-81
2022/12/30 02:36:56;;;;;;;;;;;6.00;99.90;;;;;;5050923;28;19960;-81
2022/12/30 02:39:26;;;;;;;;;;;6.00;99.90;;;;;;5060770;28;20348;-79
2022/12/30 02:44:43;;;;;;;;;;;6.00;99.90;;;;;;5055526;28;20718;-80
2022/12/30 02:47:18;;;;;;;;;;;6.00;99.90;;;;;;5055820;28;19935;-79
2022/12/30 02:52:14;;;;;;;;;;;6.00;99.90;;;;;;5058966;28;20039;-80
2022/12/30 02:52:35;;;;;;;;;;;6.00;99.90;;;;;;5041003;28;20019;-77
2022/12/30 02:55:02;;;;;;;;;;;6.00;99.90;;;;;;5059504;28;19921;-79
2022/12/30 02:57:29;;;;;;;;;;;5.90;99.90;;;;;;5064481;28;20026;-79
2022/12/30 03:05:45;;;;;;;;;;;5.80;99.90;;;;;;5059932;28;19931;-79
2022/12/30 03:08:17;;;;;;;;;;;5.80;99.90;;;;;;5065773;28;19932;-80
2022/12/30 03:13:35;;;;;;;;;;;5.80;99.90;;;;;;5058661;28;20059;-78
2022/12/30 03:16:06;;;;;;;;;;;5.80;99.90;;;;;;5063320;28;19940;-78
2022/12/30 03:18:34;;;;;;;;;;;5.80;99.90;;;;;;5060342;28;19929;-78
2022/12/30 03:21:02;;;;;;;;;;;5.80;99.90;;;;;;5059472;28;19932;-79
2022/12/30 03:29:01;;;;;;;;;;;5.80;99.90;;;;;;5045706;28;19963;-79
2022/12/30 03:31:27;;;;;;;;;;;5.80;99.90;;;;;;5058578;28;20445;-80
2022/12/30 03:33:55;;;;;;;;;;;5.80;99.90;;;;;;5058452;28;19932;-79
2022/12/30 03:36:23;;;;;;;;;;;5.80;99.90;;;;;;5060945;28;19933;-79
2022/12/30 03:38:53;;;;;;;;;;;5.80;99.90;;;;;;5058075;28;19928;-79
2022/12/30 03:41:21;;;;;;;;;;;5.80;99.90;;;;;;5061654;28;19932;-79
2022/12/30 03:43:48;;;;;;;;;;;5.80;99.90;;;;;;5060322;28;19931;-79
2022/12/30 03:46:15;;;;;;;;;;;5.80;99.90;;;;;;5062350;28;19929;-79
2022/12/30 03:48:42;;;;;;;;;;;5.90;99.90;;;;;;5058823;28;20027;-79
2022/12/30 03:51:10;;;;;;;;;;;5.90;99.90;;;;;;5061344;28;19947;-79
2022/12/30 03:53:36;;;;;;;;;;;5.90;99.90;;;;;;5060396;28;19944;-79
2022/12/30 03:56:03;;;;;;;;;;;5.90;99.90;;;;;;5061171;28;19936;-79
2022/12/30 03:58:30;;;;;;;;;;;5.90;99.90;;;;;;5062764;28;19924;-79
2022/12/30 04:00:57;;;;;;;;;;;5.90;99.90;;;;;;5044986;28;19943;-80
2022/12/30 04:03:23;;;;;;;;;;;5.90;99.90;;;;;;5042940;28;20602;-79
2022/12/30 04:05:53;;;;;;;;;;;5.90;99.90;;;;;;5063107;28;19924;-79
2022/12/30 04:08:21;;;;;;;;;;;5.90;99.90;;;;;;5058466;28;19928;-79
2022/12/30 04:10:48;;;;;;;;;;;5.90;99.90;;;;;;5058930;28;19933;-79
2022/12/30 04:13:14;;;;;;;;;;;5.90;99.90;;;;;;5058684;28;19928;-78
2022/12/30 04:15:41;;;;;;;;;;;5.90;99.90;;;;;;5041779;28;19933;-79
2022/12/30 04:18:08;;;;;;;;;;;5.90;99.90;;;;;;5059033;28;20402;-79
2022/12/30 04:20:34;;;;;;;;;;;5.90;99.90;;;;;;5060727;28;19933;-79
2022/12/30 04:23:01;;;;;;;;;;;5.80;99.90;;;;;;5057490;28;19940;-81
2022/12/30 04:25:29;;;;;;;;;;;5.90;99.90;;;;;;5059247;28;19932;-79
2022/12/30 04:27:56;;;;;;;;;;;5.90;99.90;;;;;;5035264;28;19932;-80
2022/12/30 04:30:23;;;;;;;;;;;5.90;99.90;;;;;;5053257;28;19935;-78
2022/12/30 04:32:49;;;;;;;;;;;5.80;99.90;;;;;;5053391;28;19932;-79
2022/12/30 04:35:16;;;;;;;;;;;5.80;99.90;;;;;;5052476;28;19924;-79
2022/12/30 04:37:43;;;;;;;;;;;5.80;99.90;;;;;;5038963;28;20027;-78
2022/12/30 04:40:11;;;;;;;;;;;5.70;99.90;;;;;;5061533;28;19933;-78
2022/12/30 04:42:39;;;;;;;;;;;5.70;99.90;;;;;;5039661;28;19928;-79
2022/12/30 04:45:06;;;;;;;;;;;5.70;99.90;;;;;;5058561;28;19935;-78
2022/12/30 04:47:32;;;;;;;;;;;5.70;99.90;;;;;;5060367;28;20407;-79
2022/12/30 04:49:59;;;;;;;;;;;5.60;99.90;;;;;;5060507;28;19935;-78
2022/12/30 04:52:26;;;;;;;;;;;5.60;99.90;;;;;;5058368;28;20323;-78
2022/12/30 04:54:53;;;;;;;;;;;5.60;99.90;;;;;;5055716;28;19939;-79
2022/12/30 04:57:19;;;;;;;;;;;5.60;99.90;;;;;;5062389;28;19928;-78
2022/12/30 04:59:48;;;;;;;;;;;5.60;99.90;;;;;;5059023;28;19935;-79
2022/12/30 05:02:15;;;;;;;;;;;5.60;99.90;;;;;;5060727;28;19925;-79
2022/12/30 05:04:41;;;;;;;;;;;5.50;99.90;;;;;;5068637;28;19943;-79
2022/12/30 05:07:08;;;;;;;;;;;5.50;99.90;;;;;;5083759;28;19929;-79
2022/12/30 05:09:36;;;;;;;;;;;5.50;99.90;;;;;;5072485;28;19936;-79
2022/12/30 05:12:03;;;;;;;;;;;5.50;99.90;;;;;;5066419;28;19928;-79
2022/12/30 05:14:30;;;;;;;;;;;5.50;99.90;;;;;;5064439;28;20307;-79
2022/12/30 05:16:58;;;;;;;;;;;5.50;99.90;;;;;;5061501;28;19943;-79
2022/12/30 05:19:24;;;;;;;;;;;5.50;99.90;;;;;;5064196;28;19932;-79
2022/12/30 05:21:51;;;;;;;;;;;5.50;99.90;;;;;;5064320;28;20892;-79
2022/12/30 05:27:02;;;;;;;;;;;5.50;99.90;;;;;;5049952;28;19928;-78
2022/12/30 05:29:29;;;;;;;;;;;5.50;99.90;;;;;;5064083;28;19928;-79
2022/12/30 05:31:57;;;;;;;;;;;5.50;99.90;;;;;;5063176;28;19960;-78
2022/12/30 05:34:24;;;;;;;;;;;5.50;99.90;;;;;;5045137;28;19924;-78
2022/12/30 05:36:51;;;;;;;;;;;5.50;99.90;;;;;;5064702;28;19935;-79
2022/12/30 05:39:17;;;;;;;;;;;5.50;99.90;;;;;;5062302;28;19951;-78
2022/12/30 05:41:44;;;;;;;;;;;5.50;99.90;;;;;;5061806;28;19929;-78
2022/12/30 05:44:11;;;;;;;;;;;5.50;99.90;;;;;;5045640;28;20512;-79
2022/12/30 05:46:38;;;;;;;;;;;5.50;99.90;;;;;;5049700;28;19928;-79
2022/12/30 05:49:06;;;;;;;;;;;5.50;99.90;;;;;;5057890;28;19944;-78
2022/12/30 05:51:32;;;;;;;;;;;5.50;99.90;;;;;;5062165;28;20888;-78
2022/12/30 05:53:59;;;;;;;;;;;5.50;99.90;;;;;;5054752;28;19986;-79
2022/12/30 05:56:26;;;;;;;;;;;5.50;99.90;;;;;;5063784;28;19925;-78
2022/12/30 05:58:53;;;;;;;;;;;5.40;99.90;;;;;;5061685;28;19929;-78
2022/12/30 06:01:19;;;;;;;;;;;5.50;99.90;;;;;;5062389;28;19932;-79
2022/12/30 06:03:46;;;;;;;;;;;5.50;99.90;;;;;;5059140;28;19925;-79
2022/12/30 06:06:14;;;;;;;;;;;5.50;99.90;;;;;;5060183;28;19940;-78
2022/12/30 06:08:41;;;;;;;;;;;5.50;99.90;;;;;;5060604;28;19948;-79
2022/12/30 06:11:08;;;;;;;;;;;5.50;99.90;;;;;;5064514;28;20348;-79
2022/12/30 06:13:34;;;;;;;;;;;5.50;99.90;;;;;;5065659;28;20422;-80
2022/12/30 06:16:01;;;;;;;;;;;5.50;99.90;;;;;;5044439;28;19935;-79
2022/12/30 06:18:28;;;;;;;;;;;5.60;99.90;;;;;;5062438;28;19932;-80
2022/12/30 06:20:55;;;;;;;;;;;5.60;99.90;;;;;;5063283;28;19928;-79
2022/12/30 06:23:23;;;;;;;;;;;5.60;99.90;;;;;;5064653;28;19963;-78
2022/12/30 06:25:51;;;;;;;;;;;5.60;99.90;;;;;;5063809;28;19932;-78
2022/12/30 06:28:18;;;;;;;;;;;5.60;99.90;;;;;;5045313;28;20014;-79
2022/12/30 06:30:44;;;;;;;;;;;5.60;99.90;;;;;;5066084;28;20401;-79
2022/12/30 06:33:11;;;;;;;;;;;5.70;99.90;;;;;;5065286;28;19933;-79
2022/12/30 06:35:38;;;;;;;;;;;5.70;99.90;;;;;;5065585;28;20342;-80
2022/12/30 06:38:05;;;;;;;;;;;5.60;99.90;;;;;;5062279;28;19928;-80
2022/12/30 06:40:33;;;;;;;;;;;5.70;99.90;;;;;;5062320;28;19932;-78
2022/12/30 06:43:00;;;;;;;;;;;5.60;99.90;;;;;;5061311;28;19939;-79
2022/12/30 06:45:27;;;;;;;;;;;5.60;99.90;;;;;;5044809;28;19930;-79
2022/12/30 06:47:54;;;;;;;;;;;5.60;99.90;;;;;;5060906;28;19928;-78
2022/12/30 06:50:20;;;;;;;;;;;5.60;99.90;;;;;;5061376;28;19940;-79
2022/12/30 06:52:47;;;;;;;;;;;5.70;99.90;;;;;;5061285;28;19929;-81
2022/12/30 06:55:14;;;;;;;;;;;5.70;99.90;;;;;;5061344;28;19932;-80
2022/12/30 06:57:42;;;;;;;;;;;5.60;99.90;;;;;;5063819;28;19940;-81
2022/12/30 07:00:09;;;;;;;;;;;5.70;99.90;;;;;;5061936;28;19932;-80
2022/12/30 07:02:36;;;;;;;;;;;5.70;99.90;;;;;;5063419;28;19932;-80
2022/12/30 07:05:03;;;;;;;;;;;5.70;99.90;;;;;;5058757;28;19931;-80
2022/12/30 07:07:29;;;;;;;;;;;5.70;99.90;;;;;;5044358;28;19953;-79
2022/12/30 07:09:56;;;;;;;;;;;5.80;99.90;;;;;;5059685;28;19924;-80
2022/12/30 07:12:23;;;;;;;;;;;5.80;99.90;;;;;;5072554;28;19926;-82
2022/12/30 07:14:52;;;;;;;;;;;5.80;99.90;;;;;;5079436;28;19932;-80
2022/12/30 07:17:18;;;;;;;;;;;5.80;99.90;;;;;;5067460;28;19929;-80
2022/12/30 07:19:46;;;;;;;;;;;5.80;99.90;;;;;;5041288;28;20298;-80
2022/12/30 07:22:13;;;;;;;;;;;5.90;99.90;;;;;;5064452;28;19955;-81
2022/12/30 07:24:40;;;;;;;;;;;5.90;99.90;;;;;;5063980;28;19933;-80
2022/12/30 07:27:06;;;;;;;;;;;5.90;99.90;;;;;;5060970;28;19939;-80
2022/12/30 07:29:33;;;;;;;;;;;6.00;99.90;;;;;;5061181;28;19925;-80
2022/12/30 07:32:01;;;;;;;;;;;6.00;99.90;;;;;;5061865;28;20778;-80
2022/12/30 07:34:30;;;;;;;;;;;6.10;99.90;;;;;;5062906;28;20687;-80
2022/12/30 07:36:57;;;;;;;;;;;6.10;99.90;;;;;;5061067;28;19939;-80
2022/12/30 07:39:24;;;;;;;;;;;6.10;99.90;;;;;;5059221;28;19924;-81
2022/12/30 07:41:50;;;;;;;;;;;6.10;99.90;;;;;;5060385;28;20669;-80
2022/12/30 07:44:17;;;;;;;;;;;6.10;99.90;;;;;;5062146;28;19925;-80
2022/12/30 07:46:44;;;;;;;;;;;6.10;99.90;;;;;;5061505;28;19925;-80
2022/12/30 07:49:12;;;;;;;;;;;6.20;99.90;;;;;;5061578;28;20649;-80
2022/12/30 07:51:39;;;;;;;;;;;6.20;99.90;;;;;;5062886;28;19934;-81
2022/12/30 07:54:06;;;;;;;;;;;6.30;99.90;;;;;;5057304;28;20376;-80
2022/12/30 07:56:33;;;;;;;;;;;6.30;99.90;;;;;;5041083;28;19932;-79
2022/12/30 07:58:59;;;;;;;;;;;6.40;99.90;;;;;;5059856;28;19924;-80
2022/12/30 08:01:26;;;;;;;;;;;6.40;99.90;;;;;;5063884;28;19998;-79
2022/12/30 08:03:53;;;;;;;;;;;6.00;99.90;;;;;;5063450;28;19935;-79
2022/12/30 08:06:22;;;;;;;;;;;6.50;99.90;;;;;;5060974;28;20055;-80
2022/12/30 08:08:49;;;;;;;;;;;6.60;99.90;;;;;;5058796;28;19939;-79
2022/12/30 08:11:16;;;;;;;;;;;6.60;99.90;;;;;;5060378;28;19944;-80
2022/12/30 08:13:43;;;;;;;;;;;6.70;99.90;;;;;;5048844;28;20062;-80
2022/12/30 08:16:12;;;;;;;;;;;6.70;99.90;;;;;;5055402;28;19925;-79
2022/12/30 08:18:39;;;;;;;;;;;6.80;99.90;;;;;;5058410;28;20067;-80
2022/12/30 08:21:06;;;;;;;;;;;6.80;99.90;;;;;;5055248;28;19935;-78
2022/12/30 08:23:35;;;;;;;;;;;6.90;99.90;;;;;;5040037;28;19928;-79
2022/12/30 08:26:03;;;;;;;;;;;6.90;99.90;;;;;;5058367;28;19933;-79
2022/12/30 08:28:30;;;;;;;;;;;7.00;99.90;;;;;;5060371;28;19988;-79
2022/12/30 08:30:57;;;;;;;;;;;7.00;99.90;;;;;;5057787;28;20703;-79
2022/12/30 08:33:24;;;;;;;;;;;6.50;99.90;;;;;;5053448;28;19949;-80
2022/12/30 08:35:50;;;;;;;;;;;7.10;99.90;;;;;;5057925;28;19924;-79
2022/12/30 08:38:17;;;;;;;;;;;7.20;99.90;;;;;;5035448;28;20015;-79
2022/12/30 08:40:45;;;;;;;;;;;7.30;99.90;;;;;;5056091;28;20306;-79
2022/12/30 08:43:12;;;;;;;;;;;7.40;99.90;;;;;;5056241;28;20034;-80
2022/12/30 08:45:39;;;;;;;;;;;7.50;99.90;;;;;;5052540;28;19932;-80
2022/12/30 08:48:06;;;;;;;;;;;7.60;99.90;;;;;;5054226;28;20322;-81
2022/12/30 08:50:33;;;;;;;;;;;7.60;99.90;;;;;;5038361;28;19932;-82
2022/12/30 08:53:00;;;;;;;;;;;7.70;99.90;;;;;;5060344;28;19932;-82
2022/12/30 08:55:27;;;;;;;;;;;7.70;99.90;;;;;;5041629;28;19924;-82
2022/12/30 08:57:56;;;;;;;;;;;7.80;99.90;;;;;;5059826;28;19939;-82
2022/12/30 09:00:23;;;;;;;;;;;7.80;99.90;;;;;;5063553;28;20035;-82
2022/12/30 09:02:49;;;;;;;;;;;7.90;99.90;;;;;;5056987;28;19931;-81
2022/12/30 09:05:16;;;;;;;;;;;7.90;99.90;;;;;;5062698;28;19932;-82
2022/12/30 09:07:43;;;;;;;;;;;8.00;99.90;;;;;;5057822;28;19929;-83
2022/12/30 09:10:12;;;;;;;;;;;8.10;99.90;;;;;;5043714;28;19924;-81
2022/12/30 09:12:39;;;;;;;;;;;8.20;99.90;;;;;;5059830;28;19932;-82
2022/12/30 09:15:08;;;;;;;;;;;8.30;99.90;;;;;;5062011;28;20020;-81
2022/12/30 09:17:35;;;;;;;;;;;8.30;99.90;;;;;;5064635;28;19924;-82
2022/12/30 09:20:05;;;;;;;;;;;8.40;99.90;;;;;;5060832;28;19927;-83
2022/12/30 09:22:32;;;;;;;;;;;8.50;99.90;;;;;;5067278;28;19939;-82
2022/12/30 09:24:58;;;;;;;;;;;8.60;99.90;;;;;;5044039;28;19929;-84
2022/12/30 09:27:27;;;;;;;;;;;8.70;99.90;;;;;;5069515;28;19966;-85
2022/12/30 09:29:54;;;;;;;;;;;8.80;99.90;;;;;;5079747;28;19923;-82
2022/12/30 09:32:22;;;;;;;;;;;8.90;99.90;;;;;;5084612;28;19992;-83
2022/12/30 09:34:49;;;;;;;;;;;9.00;99.90;;;;;;5068124;28;19932;-82
2022/12/30 09:37:16;;;;;;;;;;;9.10;99.90;;;;;;5083378;28;19963;-83
2022/12/30 09:39:43;;;;;;;;;;;9.10;99.90;;;;;;5081953;28;19962;-83
2022/12/30 09:45:04;;;;;;;;;;;9.20;99.90;;;;;;5079877;28;19924;-82
2022/12/30 09:47:34;;;;;;;;;;;9.30;99.90;;;;;;5083015;28;19929;-83
2022/12/30 09:50:02;;;;;;;;;;;9.40;99.90;;;;;;5061038;28;19921;-82
2022/12/30 09:52:31;;;;;;;;;;;9.40;99.90;;;;;;5071864;28;20074;-83
2022/12/30 09:55:00;;;;;;;;;;;9.40;99.90;;;;;;5064595;28;19932;-83
2022/12/30 09:57:31;;;;;;;;;;;9.50;99.90;;;;;;5049277;28;19924;-83
2022/12/30 10:00:00;;;;;;;;;;;9.60;99.90;;;;;;5064642;28;19932;-84
2022/12/30 10:02:28;;;;;;;;;;;9.70;99.90;;;;;;5055390;28;19933;-81
2022/12/30 10:04:57;;;;;;;;;;;9.70;99.90;;;;;;5046465;28;19928;-81
2022/12/30 10:07:27;;;;;;;;;;;9.80;99.90;;;;;;5041753;28;19971;-80
2022/12/30 10:09:57;;;;;;;;;;;9.90;99.90;;;;;;5059342;28;20353;-80
2022/12/30 10:12:30;;;;;;;;;;;10.10;99.90;;;;;;5046590;28;20363;-79
2022/12/30 10:15:02;;;;;;;;;;;9.70;99.90;;;;;;5060270;28;19996;-80
2022/12/30 10:17:42;;;;;;;;;;;10.40;99.90;;;;;;5042642;28;19935;-80
2022/12/30 10:20:16;;;;;;;;;;;10.50;99.90;;;;;;5042995;28;19936;-80
2022/12/30 10:22:46;;;;;;;;;;;10.60;99.90;;;;;;5037683;28;21597;-80
2022/12/30 10:25:19;;;;;;;;;;;10.70;99.90;;;;;;5061386;28;19958;-80
2022/12/30 10:27:47;;;;;;;;;;;10.70;99.90;;;;;;5064058;28;20348;-80
2022/12/30 10:30:15;;;;;;;;;;;10.80;99.90;;;;;;5062495;28;19939;-80
2022/12/30 10:32:45;;;;;;;;;;;10.80;99.90;;;;;;5062303;28;19925;-80
2022/12/30 10:35:15;;;;;;;;;;;11.00;99.90;;;;;;5060376;28;19925;-81
2022/12/30 10:37:42;;;;;;;;;;;11.10;99.90;;;;;;5039962;28;19943;-81
2022/12/30 10:40:10;;;;;;;;;;;11.00;99.90;;;;;;5059440;28;19940;-80
2022/12/30 10:42:47;;;;;;;;;;;11.10;99.90;;;;;;5060024;28;19939;-81
2022/12/30 10:45:23;;;;;;;;;;;11.40;99.90;;;;;;5062466;28;19946;-80
2022/12/30 10:47:56;;;;;;;;;;;11.10;99.90;;;;;;5046035;28;20031;-81
2022/12/30 10:50:30;;;;;;;;;;;11.10;99.90;;;;;;5062354;28;20278;-81
2022/12/30 10:52:57;;;;;;;;;;;11.10;99.90;;;;;;5042520;28;19992;-82
2022/12/30 10:55:25;;;;;;;;;;;11.10;99.90;;;;;;5063781;28;19933;-80
2022/12/30 10:57:53;;;;;;;;;;;11.00;99.90;;;;;;5061783;28;20023;-80
2022/12/30 11:00:21;;;;;;;;;;;11.00;99.90;;;;;;5060330;28;20584;-81
2022/12/30 11:02:54;;;;;;;;;;;10.90;99.90;;;;;;5059664;28;19944;-81
2022/12/30 11:05:30;;;;;;;;;;;10.90;99.90;;;;;;5056049;28;19963;-82
2022/12/30 11:07:58;;;;;;;;;;;10.80;99.90;;;;;;5060213;28;19979;-80
2022/12/30 11:10:26;;;;;;;;;;;10.80;99.90;;;;;;5062520;28;19971;-81
2022/12/30 11:15:51;;;;;;;;;;;10.80;99.90;;;;;;5047349;28;20002;-79
2022/12/30 11:18:19;;;;;;;;;;;10.80;99.90;;;;;;5047736;28;19928;-83
2022/12/30 11:20:52;;;;;;;;;;;10.80;99.90;;;;;;5063690;28;19933;-81
2022/12/30 11:23:25;;;;;;;;;;;10.70;99.90;;;;;;5062856;28;20062;-81
2022/12/30 11:25:52;;;;;;;;;;;10.70;99.90;;;;;;5066782;28;20037;-84
2022/12/30 11:28:21;;;;;;;;;;;10.70;99.90;;;;;;5070880;28;19988;-83
2022/12/30 11:30:56;;;;;;;;;;;10.70;99.90;;;;;;5045918;28;20031;-84
2022/12/30 11:33:25;;;;;;;;;;;10.70;99.90;;;;;;5062432;28;19931;-83
2022/12/30 11:35:53;;;;;;;;;;;10.60;99.90;;;;;;5064665;28;19939;-83
2022/12/30 11:38:31;;;;;;;;;;;10.10;99.90;;;;;;5057727;28;19929;-83
2022/12/30 11:41:13;;;;;;;;;;;10.60;99.90;;;;;;5045495;28;19925;-86
2022/12/30 11:43:41;;;;;;;;;;;10.50;99.90;;;;;;5069367;28;19928;-84
2022/12/30 11:46:09;;;;;;;;;;;10.60;99.90;;;;;;5076125;28;19987;-84
2022/12/30 11:48:38;;;;;;;;;;;10.50;99.90;;;;;;5079102;28;21324;-85
2022/12/30 11:51:15;;;;;;;;;;;10.50;99.90;;;;;;5062652;28;19912;-86
2022/12/30 11:53:42;;;;;;;;;;;10.50;99.90;;;;;;5082393;28;19932;-83
2022/12/30 11:56:09;;;;;;;;;;;10.50;99.90;;;;;;5055219;28;19943;-83
2022/12/30 11:58:38;;;;;;;;;;;10.50;99.90;;;;;;5069521;28;19940;-81
2022/12/30 12:01:06;;;;;;;;;;;10.40;99.90;;;;;;5063509;28;20394;-81
2022/12/30 12:03:35;;;;;;;;;;;10.40;99.90;;;;;;5041037;28;19990;-84
2022/12/30 12:06:10;;;;;;;;;;;10.50;99.90;;;;;;5044169;28;19928;-82
2022/12/30 12:08:40;;;;;;;;;;;10.40;99.90;;;;;;5051997;28;19928;-83
2022/12/30 12:11:10;;;;;;;;;;;10.40;99.90;;;;;;5058959;28;19933;-84
2022/12/30 12:13:41;;;;;;;;;;;10.40;99.90;;;;;;5059430;28;19929;-82
2022/12/30 12:16:12;;;;;;;;;;;10.50;99.90;;;;;;5074829;28;19933;-83
2022/12/30 12:18:43;;;;;;;;;;;10.50;99.90;;;;;;5073580;28;19932;-82
2022/12/30 12:21:21;;;;;;;;;;;10.50;99.90;;;;;;5073638;28;19991;-83
2022/12/30 12:23:50;;;;;;;;;;;10.50;99.90;;;;;;5072807;28;20171;-83
2022/12/30 12:26:19;;;;;;;;;;;10.50;99.90;;;;;;5058161;28;19927;-82
2022/12/30 12:28:47;;;;;;;;;;;10.50;99.90;;;;;;5057419;28;19932;-82
2022/12/30 12:31:21;;;;;;;;;;;10.50;99.90;;;;;;5058522;28;20010;-82
2022/12/30 12:33:49;;;;;;;;;;;10.50;99.90;;;;;;5078329;28;19984;-82
2022/12/30 12:36:23;;;;;;;;;;;10.50;99.90;;;;;;5077777;28;20012;-83
2022/12/30 12:38:53;;;;;;;;;;;10.50;99.90;;;;;;5060011;28;19974;-84
2022/12/30 12:41:24;;;;;;;;;;;10.50;99.90;;;;;;5074529;28;19955;-84
2022/12/30 12:43:58;;;;;;;;;;;10.50;99.90;;;;;;5048376;28;20421;-84
2022/12/30 12:46:34;;;;;;;;;;;10.50;99.90;;;;;;5066160;28;19935;-83
2022/12/30 12:49:08;;;;;;;;;;;10.60;99.90;;;;;;5063861;28;19990;-83
2022/12/30 12:51:42;;;;;;;;;;;10.60;99.90;;;;;;5064913;28;19925;-82
2022/12/30 12:54:24;;;;;;;;;;;10.70;99.90;;;;;;5062339;28;19924;-84
2022/12/30 12:56:55;;;;;;;;;;;10.70;99.90;;;;;;5043845;28;20172;-82
2022/12/30 12:59:29;;;;;;;;;;;10.80;99.90;;;;;;5061633;28;19925;-83
2022/12/30 13:02:00;;;;;;;;;;;10.80;99.90;;;;;;5049505;28;19964;-83
2022/12/30 13:04:30;;;;;;;;;;;10.80;99.90;;;;;;5047601;28;19954;-83
2022/12/30 13:07:06;;;;;;;;;;;12.00;99.90;;;;;;5048774;28;20067;-84
2022/12/30 13:09:59;;;;;;;;;;;10.80;99.90;;;;;;5046860;28;19929;-84
2022/12/30 13:12:31;;;;;;;;;;;10.80;99.90;;;;;;5044421;28;19939;-84
2022/12/30 13:15:02;;;;;;;;;;;10.80;99.90;;;;;;5042134;28;19912;-83
2022/12/30 13:17:34;;;;;;;;;;;10.80;99.90;;;;;;5061761;28;19944;-83
2022/12/30 13:20:10;;;;;;;;;;;10.70;99.90;;;;;;5059748;28;19937;-84
2022/12/30 13:22:43;;;;;;;;;;;10.60;99.90;;;;;;5061303;28;19936;-83
2022/12/30 13:25:22;;;;;;;;;;;10.50;99.90;;;;;;5048255;28;20006;-84
2022/12/30 13:31:08;;;;;;;;;;;10.30;99.90;;;;;;5045294;28;19972;-82
2022/12/30 13:33:44;;;;;;;;;;;10.10;99.90;;;;;;5044440;28;20021;-82
2022/12/30 13:36:23;;;;;;;;;;;10.00;99.90;;;;;;5050764;28;20028;-84
2022/12/30 13:39:06;;;;;;;;;;;9.90;99.90;;;;;;5048556;28;20004;-83
2022/12/30 13:42:00;;;;;;;;;;;9.80;99.90;;;;;;5046597;28;19991;-84
2022/12/30 13:44:35;;;;;;;;;;;9.60;99.90;;;;;;5013885;28;20318;-84
2022/12/30 13:47:35;;;;;;;;;;;9.60;99.90;;;;;;5047932;28;19928;-84
2022/12/30 13:50:13;;;;;;;;;;;9.50;99.90;;;;;;5059396;28;19933;-84
2022/12/30 13:52:45;;;;;;;;;;;9.40;99.90;;;;;;5048196;28;19932;-84
2022/12/30 13:55:20;;;;;;;;;;;9.10;99.90;;;;;;5076308;28;19929;-84
2022/12/30 13:57:48;;;;;;;;;;;9.40;99.90;;;;;;5074659;28;20026;-84
2022/12/30 14:00:25;;;;;;;;;;;9.90;99.90;;;;;;5036265;23;19925;-76
2022/12/30 14:02:58;;;;;;;;;;;9.40;99.90;;;;;;5041415;28;19936;-76
2022/12/30 14:05:45;;;;;;;;;;;9.40;99.90;;;;;;5027733;28;19932;-76
2022/12/30 14:08:21;;;;;;;;;;;9.40;99.90;;;;;;5036680;28;20501;-76
2022/12/30 14:10:55;;;;;;;;;;;9.40;99.90;;;;;;5039796;28;19960;-76
2022/12/30 14:13:35;;;;;;;;;;;9.40;99.90;;;;;;5039356;28;20401;-76
2022/12/30 14:16:04;;;;;;;;;;;9.40;99.90;;;;;;5037965;28;19925;-76
2022/12/30 14:18:40;;;;;;;;;;;9.40;99.90;;;;;;5034792;28;19929;-76
2022/12/30 14:21:08;;;;;;;;;;;9.40;99.90;;;;;;5035520;28;19936;-76
2022/12/30 14:23:36;;;;;;;;;;;9.40;99.90;;;;;;5028614;28;19964;-76
2022/12/30 14:26:24;;;;;;;;;;;9.40;99.90;;;;;;5025384;28;20309;-76
2022/12/30 14:28:53;;;;;;;;;;;9.30;99.90;;;;;;5018744;28;19929;-76
2022/12/30 14:31:23;;;;;;;;;;;9.20;99.90;;;;;;5027012;28;19960;-76
2022/12/30 14:33:50;;;;;;;;;;;9.20;99.90;;;;;;5030528;28;19932;-75
2022/12/30 14:36:18;;;;;;;;;;;9.20;99.90;;;;;;5030932;28;19956;-76
2022/12/30 14:38:46;;;;;;;;;;;9.10;99.90;;;;;;5030502;28;19928;-76
2022/12/30 14:41:15;;;;;;;;;;;9.10;99.90;;;;;;5032957;28;20023;-76
2022/12/30 14:43:44;;;;;;;;;;;9.00;99.90;;;;;;5058021;28;20310;-76
2022/12/30 14:46:29;;;;;;;;;;;8.90;99.90;;;;;;5042302;28;19948;-76
2022/12/30 14:48:59;;;;;;;;;;;8.90;99.90;;;;;;5035297;28;19929;-75
2022/12/30 14:51:26;;;;;;;;;;;8.90;99.90;;;;;;5036606;28;19936;-75
2022/12/30 14:53:53;;;;;;;;;;;8.80;99.90;;;;;;5028081;28;19943;-76
2022/12/30 14:56:21;;;;;;;;;;;8.80;99.90;;;;;;5032715;28;20380;-76
2022/12/30 14:58:49;;;;;;;;;;;8.80;99.90;;;;;;5037629;28;20515;-76
2022/12/30 15:01:19;;;;;;;;;;;8.90;99.90;;;;;;5040550;28;20464;-76
2022/12/30 15:03:45;;;;;;;;;;;8.80;99.90;;;;;;5048523;28;19929;-76
2022/12/30 15:06:14;;;;;;;;;;;8.80;99.90;;;;;;5050317;28;19924;-76
2022/12/30 15:08:41;;;;;;;;;;;8.80;99.90;;;;;;5061558;28;20605;-76
2022/12/30 15:11:10;;;;;;;;;;;8.80;99.90;;;;;;5030247;28;19928;-76
2022/12/30 15:13:41;;;;;;;;;;;8.80;99.90;;;;;;5050655;28;19925;-77
2022/12/30 15:16:09;;;;;;;;;;;8.80;99.90;;;;;;5028782;28;19968;-76
2022/12/30 15:18:36;;;;;;;;;;;8.80;99.90;;;;;;5031317;28;19929;-75
2022/12/30 15:21:19;;;;;;;;;;;8.80;99.90;;;;;;5046694;28;19940;-76
2022/12/30 15:23:46;;;;;;;;;;;8.80;99.90;;;;;;5044497;28;19929;-76
2022/12/30 15:26:16;;;;;;;;;;;8.80;99.90;;;;;;5042459;28;19929;-76
2022/12/30 15:28:42;;;;;;;;;;;8.80;99.90;;;;;;5037879;28;19935;-76
2022/12/30 15:31:16;;;;;;;;;;;8.70;99.90;;;;;;5034020;28;20040;-75
2022/12/30 15:33:52;;;;;;;;;;;8.70;99.90;;;;;;5042557;28;19936;-77
2022/12/30 15:36:21;;;;;;;;;;;8.70;99.90;;;;;;5042059;28;19928;-77
2022/12/30 15:38:48;;;;;;;;;;;8.70;99.90;;;;;;5033000;28;19929;-76